Time;durP1;ratioP1;P1;durP2;ratioP2;P2;SDS_P1;SDS_P2;PMS_P1;PMS_P2;Temp;Humidity;BMP_temperature;BMP_pressure;BME280_temperature;BME280_humidity;BME280_pressure;Samples;Min_cycle;Max_cycle;Signal;HPM_P1;HPM_P2
2022/03/11 00:00:42;;;;;;;16.77;9.27;;;1.10;90.80;;;;;;5053541;28;20106;-61
2022/03/11 00:03:10;;;;;;;16.45;8.88;;;1.10;90.80;;;;;;5052638;28;20056;-61
2022/03/11 00:05:39;;;;;;;19.15;10.95;;;1.10;90.90;;;;;;5054183;28;20049;-62
2022/03/11 00:08:06;;;;;;;18.58;9.73;;;1.00;91.30;;;;;;5053412;28;20102;-62
2022/03/11 00:10:33;;;;;;;17.98;8.82;;;1.00;91.60;;;;;;5053557;28;20040;-62
2022/03/11 00:13:00;;;;;;;15.32;8.68;;;0.90;91.80;;;;;;5051331;28;20948;-61
2022/03/11 00:15:27;;;;;;;16.88;8.57;;;0.90;91.80;;;;;;5054260;28;20555;-61
2022/03/11 00:17:54;;;;;;;21.55;10.35;;;0.90;91.90;;;;;;5054015;28;20044;-62
2022/03/11 00:20:21;;;;;;;;;;;0.90;92.00;;;;;;5053517;28;20098;-61
2022/03/11 00:22:52;;;;;;;12.33;6.57;;;0.90;92.20;;;;;;5054429;28;19924;-62
2022/03/11 00:25:20;;;;;;;20.02;10.27;;;0.80;92.20;;;;;;5052487;28;20041;-61
2022/03/11 00:27:47;;;;;;;21.35;9.73;;;0.80;92.20;;;;;;5053955;28;20056;-61
2022/03/11 00:30:14;;;;;;;19.58;9.82;;;0.80;92.20;;;;;;5053076;28;20049;-62
2022/03/11 00:32:41;;;;;;;;;;;0.80;92.20;;;;;;5053608;28;20056;-62
2022/03/11 00:35:09;;;;;;;15.88;10.15;;;0.80;92.30;;;;;;5053163;28;19924;-62
2022/03/11 00:37:40;;;;;;;18.60;9.02;;;0.80;92.50;;;;;;5053351;28;20056;-62
2022/03/11 00:40:07;;;;;;;18.90;8.85;;;0.70;92.60;;;;;;5053148;28;20044;-61
2022/03/11 00:42:34;;;;;;;15.93;8.38;;;0.70;92.60;;;;;;5053543;28;20729;-61
2022/03/11 00:45:01;;;;;;;15.10;8.50;;;0.70;92.80;;;;;;5052500;28;20110;-61
2022/03/11 00:47:28;;;;;;;18.75;9.57;;;0.70;93.00;;;;;;5053044;28;20048;-62
2022/03/11 00:49:55;;;;;;;;;;;0.70;93.10;;;;;;5052236;28;20654;-61
2022/03/11 00:52:21;;;;;;;22.13;11.20;;;0.70;93.30;;;;;;5053778;28;20600;-61
2022/03/11 00:54:48;;;;;;;;;;;0.70;93.90;;;;;;5052961;28;20539;-61
2022/03/11 00:57:16;;;;;;;17.88;8.82;;;0.60;94.00;;;;;;5052926;28;19924;-61
2022/03/11 00:59:43;;;;;;;20.80;10.05;;;0.60;94.40;;;;;;5053378;28;20036;-61
2022/03/11 01:02:10;;;;;;;;;;;0.50;94.90;;;;;;5053281;28;20076;-61
2022/03/11 01:04:37;;;;;;;17.30;8.63;;;0.50;94.90;;;;;;5052777;28;19935;-62
2022/03/11 01:07:03;;;;;;;;;;;0.50;95.10;;;;;;5053633;28;20049;-61
2022/03/11 01:09:30;;;;;;;19.20;10.00;;;0.50;95.70;;;;;;5052314;28;19981;-61
2022/03/11 01:11:57;;;;;;;20.40;9.75;;;0.40;95.60;;;;;;5053248;28;20037;-61
2022/03/11 01:14:24;;;;;;;22.50;9.38;;;0.40;95.60;;;;;;5052162;28;20068;-61
2022/03/11 01:16:51;;;;;;;;;;;0.40;95.90;;;;;;5054150;28;20079;-61
2022/03/11 01:19:18;;;;;;;20.97;10.57;;;0.40;96.30;;;;;;5052298;28;19924;-61
2022/03/11 01:21:45;;;;;;;;;;;0.40;96.30;;;;;;5053751;28;20122;-61
2022/03/11 01:24:11;;;;;;;16.20;9.70;;;0.30;97.10;;;;;;5053900;28;20681;-62
2022/03/11 01:26:38;;;;;;;19.60;10.88;;;0.30;97.60;;;;;;5055938;28;20121;-61
2022/03/11 01:29:05;;;;;;;;;;;0.30;98.00;;;;;;5057765;28;20170;-61
2022/03/11 01:31:32;;;;;;;16.75;9.02;;;0.20;98.10;;;;;;5055629;28;20007;-61
2022/03/11 01:33:59;;;;;;;24.13;10.43;;;0.20;98.10;;;;;;5054599;28;20036;-61
2022/03/11 01:36:26;;;;;;;21.95;10.43;;;0.20;98.40;;;;;;5056988;28;20059;-61
2022/03/11 01:38:54;;;;;;;;;;;0.20;98.70;;;;;;5056969;28;20102;-61
2022/03/11 01:41:21;;;;;;;20.42;9.77;;;0.20;99.00;;;;;;5056826;28;19925;-61
2022/03/11 01:43:51;;;;;;;;;;;0.20;99.20;;;;;;5050388;28;20402;-61
2022/03/11 01:46:18;;;;;;;17.65;9.80;;;0.20;99.20;;;;;;5059268;28;20262;-61
2022/03/11 01:48:45;;;;;;;20.33;10.82;;;0.20;99.20;;;;;;5074200;28;20050;-61
2022/03/11 01:51:12;;;;;;;;;;;0.10;99.20;;;;;;5075247;28;20133;-61
2022/03/11 01:53:39;;;;;;;21.95;11.45;;;0.10;99.60;;;;;;5055810;28;19969;-61
2022/03/11 01:56:05;;;;;;;;;;;0.10;99.40;;;;;;5056930;28;20048;-61
2022/03/11 01:58:33;;;;;;;18.58;9.02;;;0.20;99.50;;;;;;5056511;28;19974;-61
2022/03/11 02:01:04;;;;;;;18.67;9.50;;;0.20;99.40;;;;;;5055560;28;20052;-61
2022/03/11 02:03:32;;;;;;;17.75;10.68;;;0.10;99.60;;;;;;5055368;28;20048;-61
2022/03/11 02:06:03;;;;;;;16.65;9.27;;;0.10;99.70;;;;;;5056631;28;20041;-61
2022/03/11 02:08:33;;;;;;;19.25;10.20;;;0.00;99.70;;;;;;5055214;28;20033;-61
2022/03/11 02:11:00;;;;;;;19.13;9.13;;;0.00;99.80;;;;;;5056170;28;20097;-61
2022/03/11 02:13:26;;;;;;;;;;;0.00;99.90;;;;;;5056254;28;20404;-61
2022/03/11 02:15:53;;;;;;;20.75;9.20;;;0.00;99.90;;;;;;5055892;28;19931;-61
2022/03/11 02:18:20;;;;;;;25.23;8.98;;;0.00;99.90;;;;;;5055781;28;20401;-61
2022/03/11 02:20:48;;;;;;;;;;;0.00;99.90;;;;;;5055792;28;20122;-61
2022/03/11 02:23:17;;;;;;;20.00;10.32;;;0.00;99.90;;;;;;5055100;28;19924;-61
2022/03/11 02:25:44;;;;;;;21.75;10.52;;;-0.10;99.90;;;;;;5055795;28;20052;-61
2022/03/11 02:28:10;;;;;;;;;;;-0.10;99.90;;;;;;5056931;28;20041;-61
2022/03/11 02:30:37;;;;;;;20.45;10.13;;;-0.10;99.90;;;;;;5054710;28;20628;-61
2022/03/11 02:33:04;;;;;;;18.63;9.15;;;-0.10;99.90;;;;;;5054665;28;20610;-61
2022/03/11 02:35:31;;;;;;;;;;;-0.10;99.90;;;;;;5056439;28;20052;-61
2022/03/11 02:37:57;;;;;;;20.52;10.32;;;-0.20;99.90;;;;;;5055124;28;19936;-61
2022/03/11 02:40:24;;;;;;;;;;;-0.20;99.90;;;;;;5056671;28;20078;-61
2022/03/11 02:42:51;;;;;;;21.00;10.73;;;-0.20;99.90;;;;;;5056210;28;19932;-61
2022/03/11 02:45:18;;;;;;;21.77;11.20;;;-0.20;99.90;;;;;;5054011;28;20040;-61
2022/03/11 02:47:44;;;;;;;18.75;10.48;;;-0.20;99.90;;;;;;5055153;28;20045;-61
2022/03/11 02:50:11;;;;;;;;;;;-0.20;99.90;;;;;;5055393;28;20036;-61
2022/03/11 02:52:38;;;;;;;24.27;11.65;;;-0.20;99.90;;;;;;5054843;28;19928;-61
2022/03/11 02:55:05;;;;;;;19.05;10.27;;;-0.20;99.90;;;;;;5053045;28;20225;-61
2022/03/11 02:57:32;;;;;;;18.92;9.95;;;-0.30;99.90;;;;;;5054329;28;20043;-61
2022/03/11 02:59:58;;;;;;;;;;;-0.30;99.90;;;;;;5055603;28;20098;-61
2022/03/11 03:02:26;;;;;;;24.52;11.63;;;-0.30;99.90;;;;;;5054582;28;19924;-61
2022/03/11 03:04:53;;;;;;;15.32;9.07;;;-0.40;99.90;;;;;;5054976;28;20029;-61
2022/03/11 03:07:19;;;;;;;;;;;-0.40;99.90;;;;;;5055737;28;20049;-61
2022/03/11 03:09:47;;;;;;;20.35;10.50;;;-0.40;99.90;;;;;;5054536;28;19931;-61
2022/03/11 03:12:14;;;;;;;;;;;-0.50;99.90;;;;;;5055891;28;20037;-61
2022/03/11 03:14:41;;;;;;;18.50;9.88;;;-0.50;99.90;;;;;;5053143;28;20503;-61
2022/03/11 03:17:07;;;;;;;22.40;10.52;;;-0.60;99.90;;;;;;5055787;28;20441;-61
2022/03/11 03:19:35;;;;;;;20.45;10.32;;;-0.60;99.90;;;;;;5054763;28;20717;-61
2022/03/11 03:22:05;;;;;;;19.55;10.45;;;-0.60;99.90;;;;;;5053073;28;20044;-61
2022/03/11 03:24:34;;;;;;;17.45;9.63;;;-0.60;99.90;;;;;;5054122;28;20044;-61
2022/03/11 03:27:02;;;;;;;;;;;-0.70;99.90;;;;;;5055418;28;20036;-61
2022/03/11 03:29:29;;;;;;;19.10;9.32;;;-0.70;99.90;;;;;;5054672;28;20464;-61
2022/03/11 03:31:58;;;;;;;21.88;11.65;;;-0.70;99.90;;;;;;5054873;28;20048;-62
2022/03/11 03:34:31;;;;;;;23.17;11.57;;;-0.70;99.90;;;;;;5053578;28;20530;-61
2022/03/11 03:36:59;;;;;;;20.85;10.13;;;-0.70;99.90;;;;;;5054218;28;20453;-61
2022/03/11 03:39:27;;;;;;;22.17;11.48;;;-0.70;99.90;;;;;;5054467;28;20074;-61
2022/03/11 03:41:55;;;;;;;18.67;10.07;;;-0.80;99.90;;;;;;5054446;28;20094;-61
2022/03/11 03:44:22;;;;;;;19.63;9.88;;;-0.80;99.90;;;;;;5053088;28;20097;-61
2022/03/11 03:46:49;;;;;;;17.35;10.05;;;-0.80;99.90;;;;;;5053550;28;20048;-61
2022/03/11 03:49:16;;;;;;;16.25;9.30;;;-0.80;99.90;;;;;;5054041;28;20048;-61
2022/03/11 03:51:44;;;;;;;;;;;-0.80;99.90;;;;;;5053531;28;20052;-61
2022/03/11 03:54:11;;;;;;;22.40;10.30;;;-0.80;99.90;;;;;;5053429;28;20621;-61
2022/03/11 03:56:39;;;;;;;19.83;11.13;;;-0.90;99.90;;;;;;5053270;28;20873;-61
2022/03/11 03:59:08;;;;;;;18.88;10.68;;;-0.90;99.90;;;;;;5053980;28;20036;-61
2022/03/11 04:01:36;;;;;;;20.42;11.00;;;-0.90;99.90;;;;;;5049919;28;20091;-61
2022/03/11 04:04:04;;;;;;;20.33;11.48;;;-0.90;99.90;;;;;;5052951;28;20274;-61
2022/03/11 04:06:33;;;;;;;33.45;11.90;;;-1.00;99.90;;;;;;5053432;28;20051;-61
2022/03/11 04:09:01;;;;;;;19.75;9.18;;;-1.00;99.90;;;;;;5053107;28;20048;-61
2022/03/11 04:11:28;;;;;;;24.30;9.77;;;-1.00;99.90;;;;;;5053558;28;20560;-61
2022/03/11 04:13:56;;;;;;;25.05;11.40;;;-1.00;99.90;;;;;;5053166;28;20047;-61
2022/03/11 04:16:24;;;;;;;21.08;9.48;;;-1.00;99.90;;;;;;5053811;28;20750;-61
2022/03/11 04:18:51;;;;;;;19.65;9.05;;;-1.00;99.90;;;;;;5052706;28;21036;-61
2022/03/11 04:21:19;;;;;;;20.90;11.32;;;-1.00;99.90;;;;;;5052464;28;20106;-61
2022/03/11 04:23:47;;;;;;;20.35;11.02;;;-1.10;99.90;;;;;;5052143;28;20045;-61
2022/03/11 04:26:14;;;;;;;19.48;10.30;;;-1.10;99.90;;;;;;5053322;28;20044;-61
2022/03/11 04:28:41;;;;;;;16.65;8.82;;;-1.10;99.90;;;;;;5052176;28;20048;-61
2022/03/11 04:31:11;;;;;;;18.70;9.50;;;-1.10;99.90;;;;;;5053426;28;20048;-61
2022/03/11 04:33:41;;;;;;;23.52;12.07;;;-1.10;99.90;;;;;;5052241;28;20624;-61
2022/03/11 04:36:08;;;;;;;20.63;10.10;;;-1.10;99.90;;;;;;5053661;28;20125;-61
2022/03/11 04:38:38;;;;;;;19.85;10.23;;;-1.10;99.90;;;;;;5053181;28;20040;-61
2022/03/11 04:41:05;;;;;;;20.08;11.10;;;-1.10;99.90;;;;;;5053311;28;20074;-61
2022/03/11 04:43:33;;;;;;;19.65;10.82;;;-1.10;99.90;;;;;;5052517;28;20060;-61
2022/03/11 04:46:00;;;;;;;22.45;11.48;;;-1.00;99.90;;;;;;5052729;28;20049;-61
2022/03/11 04:48:27;;;;;;;23.67;14.18;;;-1.00;99.90;;;;;;5053627;28;20051;-61
2022/03/11 04:50:56;;;;;;;27.17;14.77;;;-1.00;99.90;;;;;;5052927;28;20098;-62
2022/03/11 04:53:23;;;;;;;37.95;16.85;;;-1.10;99.90;;;;;;5052722;28;20114;-60
2022/03/11 04:55:50;;;;;;;29.95;14.63;;;-1.10;99.90;;;;;;5053461;28;20053;-60
2022/03/11 04:58:16;;;;;;;28.50;14.02;;;-1.10;99.90;;;;;;5055004;28;20052;-60
2022/03/11 05:00:43;;;;;;;23.95;12.68;;;-1.20;99.90;;;;;;5057357;28;20048;-59
2022/03/11 05:03:10;;;;;;;22.95;12.77;;;-1.20;99.90;;;;;;5056102;28;20079;-61
2022/03/11 05:05:37;;;;;;;19.58;11.15;;;-1.30;99.90;;;;;;5057013;28;20426;-62
2022/03/11 05:08:05;;;;;;;;;;;-1.30;99.90;;;;;;5058516;28;20706;-60
2022/03/11 05:10:32;;;;;;;22.52;11.07;;;-1.30;99.90;;;;;;5056221;28;20209;-59
2022/03/11 05:12:59;;;;;;;21.77;11.32;;;-1.30;99.90;;;;;;5056617;28;20052;-59
2022/03/11 05:15:26;;;;;;;21.23;11.55;;;-1.30;99.90;;;;;;5056673;28;20068;-60
2022/03/11 05:17:53;;;;;;;21.85;11.35;;;-1.30;99.90;;;;;;5057523;28;20044;-61
2022/03/11 05:20:20;;;;;;;22.65;11.18;;;-1.40;99.90;;;;;;5055969;28;20630;-59
2022/03/11 05:22:47;;;;;;;21.50;11.80;;;-1.40;99.90;;;;;;5056983;28;20048;-59
2022/03/11 05:25:13;;;;;;;;;;;-1.40;99.90;;;;;;5056978;28;20878;-59
2022/03/11 05:27:40;;;;;;;21.17;10.73;;;-1.30;99.90;;;;;;5054673;28;19931;-60
2022/03/11 05:30:08;;;;;;;20.05;10.73;;;-1.30;99.90;;;;;;5057085;28;20040;-59
2022/03/11 05:32:46;;;;;;;17.65;9.73;;;-1.30;99.90;;;;;;5056622;28;20040;-62
2022/03/11 05:35:16;;;;;;;19.55;10.50;;;-1.40;99.90;;;;;;5055598;28;20151;-60
2022/03/11 05:37:46;;;;;;;20.67;9.70;;;-1.40;99.90;;;;;;5056912;28;20041;-59
2022/03/11 05:40:13;;;;;;;21.30;10.20;;;-1.30;99.90;;;;;;5055514;28;20094;-60
2022/03/11 05:42:41;;;;;;;22.23;11.95;;;-1.30;99.90;;;;;;5056741;28;20053;-61
2022/03/11 05:45:08;;;;;;;22.33;11.73;;;-1.30;99.90;;;;;;5056257;28;20074;-60
2022/03/11 05:47:35;;;;;;;21.40;11.90;;;-1.30;99.90;;;;;;5056882;28;20684;-60
2022/03/11 05:50:03;;;;;;;30.77;10.75;;;-1.20;99.90;;;;;;5056518;28;20094;-60
2022/03/11 05:52:30;;;;;;;22.83;11.43;;;-1.30;99.90;;;;;;5056229;28;20048;-60
2022/03/11 05:54:57;;;;;;;22.13;9.98;;;-1.30;99.90;;;;;;5056342;28;20033;-61
2022/03/11 05:57:24;;;;;;;19.27;10.60;;;-1.30;99.90;;;;;;5055421;28;20040;-61
2022/03/11 05:59:50;;;;;;;;;;;-1.40;99.90;;;;;;5057230;28;20057;-60
2022/03/11 06:02:17;;;;;;;20.50;11.35;;;-1.40;99.90;;;;;;5056957;28;20001;-60
2022/03/11 06:04:44;;;;;;;21.58;10.57;;;-1.40;99.90;;;;;;5054903;28;20049;-60
2022/03/11 06:07:11;;;;;;;22.08;9.50;;;-1.40;99.90;;;;;;5055569;28;20059;-60
2022/03/11 06:09:38;;;;;;;18.90;10.30;;;-1.40;99.90;;;;;;5055130;28;20033;-61
2022/03/11 06:12:05;;;;;;;20.80;10.40;;;-1.30;99.90;;;;;;5056202;28;20444;-60
2022/03/11 06:14:32;;;;;;;20.10;10.38;;;-1.30;99.90;;;;;;5055762;28;20048;-60
2022/03/11 06:16:59;;;;;;;;;;;-1.20;99.90;;;;;;5056728;28;20041;-61
2022/03/11 06:19:26;;;;;;;21.35;10.82;;;-1.20;99.90;;;;;;5055663;28;19924;-60
2022/03/11 06:21:55;;;;;;;;;;;-1.10;99.90;;;;;;5056587;28;20693;-60
2022/03/11 06:24:21;;;;;;;21.95;11.38;;;-1.10;99.90;;;;;;5055581;28;19924;-60
2022/03/11 06:26:48;;;;;;;;;;;-1.00;99.90;;;;;;5056492;28;20501;-60
2022/03/11 06:29:15;;;;;;;24.90;12.10;;;-0.90;99.90;;;;;;5055790;28;19924;-60
2022/03/11 06:31:42;;;;;;;23.92;12.27;;;-0.80;99.90;;;;;;5055762;28;20102;-60
2022/03/11 06:34:09;;;;;;;21.60;11.85;;;-0.60;99.90;;;;;;5052867;28;20049;-60
2022/03/11 06:36:37;;;;;;;23.15;11.20;;;-0.40;99.90;;;;;;5054540;28;20105;-60
2022/03/11 06:39:07;;;;;;;22.25;11.20;;;-0.10;99.90;;;;;;5054201;28;20040;-60
2022/03/11 06:41:34;;;;;;;22.13;10.77;;;0.10;99.90;;;;;;5054404;28;20051;-63
2022/03/11 06:44:01;;;;;;;23.50;11.73;;;0.40;99.90;;;;;;5054733;28;20803;-64
2022/03/11 06:46:28;;;;;;;;;;;0.60;99.90;;;;;;5055555;28;20075;-63
2022/03/11 06:48:55;;;;;;;23.48;11.40;;;0.90;99.90;;;;;;5055579;28;20794;-65
2022/03/11 06:51:22;;;;;;;23.40;12.45;;;1.10;99.90;;;;;;5054382;28;20568;-55
2022/03/11 06:53:49;;;;;;;24.00;11.43;;;1.40;99.90;;;;;;5054134;28;20074;-55
2022/03/11 06:56:16;;;;;;;24.42;11.38;;;1.60;99.90;;;;;;5055475;28;20502;-55
2022/03/11 06:58:42;;;;;;;;;;;1.90;99.90;;;;;;5055307;28;20094;-55
2022/03/11 07:01:09;;;;;;;23.13;11.23;;;2.10;99.90;;;;;;5055212;28;20383;-55
2022/03/11 07:03:36;;;;;;;26.52;12.65;;;2.50;99.90;;;;;;5052436;28;20041;-55
2022/03/11 07:06:03;;;;;;;;;;;2.70;99.90;;;;;;5056105;28;20055;-55
2022/03/11 07:08:29;;;;;;;31.48;11.85;;;2.80;99.90;;;;;;5055146;28;19982;-55
2022/03/11 07:10:58;;;;;;;20.52;11.27;;;3.00;99.90;;;;;;5054241;28;20231;-55
2022/03/11 07:13:26;;;;;;;25.88;12.13;;;3.30;99.90;;;;;;5054501;28;20098;-56
2022/03/11 07:15:53;;;;;;;23.98;11.25;;;3.50;99.90;;;;;;5055207;28;20106;-55
2022/03/11 07:18:20;;;;;;;32.33;12.50;;;3.90;99.40;;;;;;5054000;28;21084;-56
2022/03/11 07:20:47;;;;;;;;;;;4.20;96.80;;;;;;5051585;28;20651;-56
2022/03/11 07:23:31;;;;;;;18.92;10.38;;;4.50;97.50;;;;;;5030419;28;20360;-57
2022/03/11 07:25:57;;;;;;;;;;;4.90;96.70;;;;;;5033029;28;20081;-54
2022/03/11 07:28:27;;;;;;;21.83;9.60;;;5.40;95.50;;;;;;5031646;28;19925;-65
2022/03/11 07:30:53;;;;;;;18.65;10.88;;;5.80;93.80;;;;;;5031754;28;20041;-55
2022/03/11 07:33:20;;;;;;;;;;;6.20;91.70;;;;;;5036287;28;20137;-55
2022/03/11 07:35:47;;;;;;;24.25;11.75;;;6.40;90.30;;;;;;5052292;28;19931;-56
2022/03/11 07:38:14;;;;;;;23.05;11.18;;;6.60;86.60;;;;;;5052743;28;20158;-56
2022/03/11 07:40:41;;;;;;;29.05;11.38;;;6.80;85.30;;;;;;5050645;28;20051;-56
2022/03/11 07:43:09;;;;;;;23.20;12.35;;;7.00;82.60;;;;;;5051936;28;20045;-55
2022/03/11 07:45:37;;;;;;;20.98;11.32;;;7.10;81.40;;;;;;5052400;28;20843;-55
2022/03/11 07:48:04;;;;;;;34.67;12.52;;;7.30;79.10;;;;;;5040523;28;20033;-56
2022/03/11 07:50:32;;;;;;;23.02;12.25;;;7.40;77.80;;;;;;5031033;28;20045;-56
2022/03/11 07:52:59;;;;;;;21.90;13.50;;;7.60;77.60;;;;;;5034730;28;20040;-55
2022/03/11 07:55:27;;;;;;;30.50;13.60;;;7.70;75.90;;;;;;5031833;28;20056;-54
2022/03/11 07:57:54;;;;;;;;;;;7.90;74.60;;;;;;5032073;28;20049;-57
2022/03/11 08:00:21;;;;;;;27.50;14.80;;;8.10;74.70;;;;;;5031633;28;19932;-56
2022/03/11 08:02:48;;;;;;;25.77;13.63;;;8.40;74.50;;;;;;5030958;28;20037;-55
2022/03/11 08:05:15;;;;;;;29.13;14.15;;;8.60;73.20;;;;;;5029789;28;20099;-55
2022/03/11 08:07:50;;;;;;;23.42;13.15;;;8.90;71.50;;;;;;5031216;28;20054;-53
2022/03/11 08:10:17;;;;;;;32.55;14.02;;;9.20;70.50;;;;;;5048682;28;20041;-57
2022/03/11 08:12:45;;;;;;;21.90;12.82;;;9.40;69.90;;;;;;5051030;28;20600;-56
2022/03/11 08:15:12;;;;;;;26.35;12.18;;;9.70;68.70;;;;;;5051853;28;20509;-57
2022/03/11 08:17:40;;;;;;;21.58;13.40;;;9.90;65.70;;;;;;5050907;28;20581;-57
2022/03/11 08:20:09;;;;;;;30.83;13.32;;;10.10;64.80;;;;;;5051418;28;20039;-56
2022/03/11 08:22:36;;;;;;;31.05;13.13;;;10.20;62.30;;;;;;5051517;28;20836;-55
2022/03/11 08:25:05;;;;;;;24.55;13.10;;;10.20;63.90;;;;;;5050385;28;20489;-54
2022/03/11 08:27:32;;;;;;;23.98;12.35;;;10.30;63.70;;;;;;5051265;28;20732;-55
2022/03/11 08:29:59;;;;;;;;;;;10.50;61.20;;;;;;5051694;28;20044;-56
2022/03/11 08:32:28;;;;;;;22.42;11.75;;;10.70;60.50;;;;;;5051051;28;20291;-56
2022/03/11 08:34:55;;;;;;;24.48;11.52;;;10.70;59.40;;;;;;5049954;28;20048;-56
2022/03/11 08:37:26;;;;;;;21.80;12.05;;;10.80;60.60;;;;;;5052546;28;20143;-56
2022/03/11 08:39:54;;;;;;;20.70;12.05;;;10.90;60.70;;;;;;5050762;28;20072;-56
2022/03/11 08:42:20;;;;;;;;;;;10.90;59.90;;;;;;5051272;28;20110;-56
2022/03/11 08:44:49;;;;;;;26.77;13.00;;;10.90;59.60;;;;;;5049743;28;21280;-56
2022/03/11 08:47:16;;;;;;;21.67;12.02;;;11.00;59.80;;;;;;5050367;28;20040;-56
2022/03/11 08:49:43;;;;;;;20.77;11.55;;;11.30;58.80;;;;;;5050855;28;20048;-56
2022/03/11 08:52:10;;;;;;;;;;;11.50;59.30;;;;;;5051681;28;20099;-56
2022/03/11 08:54:37;;;;;;;26.40;12.40;;;11.70;58.70;;;;;;5049902;28;19930;-56
2022/03/11 08:57:03;;;;;;;25.67;12.68;;;12.00;59.00;;;;;;5051922;28;20052;-56
2022/03/11 08:59:31;;;;;;;17.60;11.00;;;12.10;58.80;;;;;;5051155;28;20056;-56
2022/03/11 09:01:58;;;;;;;21.20;11.43;;;12.40;57.90;;;;;;5050497;28;20048;-56
2022/03/11 09:04:26;;;;;;;18.10;11.07;;;12.60;56.30;;;;;;5049972;28;20486;-55
2022/03/11 09:06:52;;;;;;;18.33;12.13;;;12.70;55.10;;;;;;5051890;28;20113;-57
2022/03/11 09:09:19;;;;;;;21.88;10.82;;;12.80;54.80;;;;;;5050950;28;20048;-56
2022/03/11 09:11:46;;;;;;;24.80;11.98;;;13.00;54.90;;;;;;5050374;28;20143;-52
2022/03/11 09:14:13;;;;;;;;;;;13.20;54.50;;;;;;5051385;28;20777;-57
2022/03/11 09:16:40;;;;;;;22.10;11.95;;;13.40;54.40;;;;;;5050726;28;20646;-56
2022/03/11 09:19:08;;;;;;;26.63;12.45;;;13.70;54.50;;;;;;5050876;28;20044;-57
2022/03/11 09:21:40;;;;;;;27.67;12.43;;;13.80;51.90;;;;;;5049485;28;20055;-57
2022/03/11 09:24:07;;;;;;;22.70;13.68;;;13.70;53.30;;;;;;5050045;28;20052;-57
2022/03/11 09:26:34;;;;;;;21.13;13.80;;;13.70;52.90;;;;;;5051701;28;20048;-57
2022/03/11 09:29:19;;;;;;;25.45;12.98;;;13.80;53.30;;;;;;5051170;28;20036;-57
2022/03/11 09:31:46;;;;;;;35.35;12.80;;;14.00;52.90;;;;;;5050580;28;20460;-57
2022/03/11 09:34:13;;;;;;;;;;;14.30;52.70;;;;;;5050755;28;20055;-57
2022/03/11 09:36:43;;;;;;;26.38;14.88;;;14.50;52.30;;;;;;5050434;28;19924;-57
2022/03/11 09:39:09;;;;;;;;;;;14.60;51.00;;;;;;5051521;28;20079;-56
2022/03/11 09:41:36;;;;;;;27.45;14.45;;;14.70;51.20;;;;;;5050328;28;20808;-56
2022/03/11 09:44:03;;;;;;;;;;;14.90;51.80;;;;;;5051389;28;20060;-58
2022/03/11 09:46:32;;;;;;;42.63;15.27;;;15.00;50.00;;;;;;5053980;28;19928;-57
2022/03/11 09:49:01;;;;;;;23.55;15.05;;;15.20;49.50;;;;;;5054316;28;20056;-57
2022/03/11 09:51:34;;;;;;;26.75;15.88;;;15.40;49.10;;;;;;5054334;28;20776;-56
2022/03/11 09:54:02;;;;;;;24.13;15.68;;;15.30;48.60;;;;;;5052875;28;20094;-57
2022/03/11 09:56:29;;;;;;;26.05;15.15;;;15.20;49.40;;;;;;5052030;28;20036;-57
2022/03/11 09:58:56;;;;;;;22.27;15.55;;;15.30;50.00;;;;;;5034418;28;20078;-57
2022/03/11 10:01:23;;;;;;;;;;;15.30;48.80;;;;;;5042171;28;20052;-57
2022/03/11 10:03:50;;;;;;;25.50;15.48;;;15.40;49.70;;;;;;5054573;28;19924;-56
2022/03/11 10:06:43;;;;;;;21.48;15.40;;;15.50;48.50;;;;;;5042467;28;20056;-56
2022/03/11 10:09:18;;;;;;;23.40;16.10;;;15.60;47.90;;;;;;5035036;28;20094;-56
2022/03/11 10:11:49;;;;;;;28.10;16.77;;;15.60;48.40;;;;;;5033628;28;20059;-66
2022/03/11 10:14:16;;;;;;;25.02;15.70;;;15.60;48.00;;;;;;5032931;28;20060;-65
2022/03/11 10:16:44;;;;;;;22.70;16.08;;;15.60;48.20;;;;;;5033653;28;20498;-56
2022/03/11 10:19:13;;;;;;;28.55;16.17;;;15.60;47.90;;;;;;5037310;28;20041;-56
2022/03/11 10:21:45;;;;;;;25.10;16.88;;;15.60;47.60;;;;;;5034049;28;20053;-56
2022/03/11 10:24:18;;;;;;;23.25;15.27;;;15.60;47.60;;;;;;5030696;28;20077;-56
2022/03/11 10:26:48;;;;;;;24.75;16.30;;;15.80;47.50;;;;;;5034230;28;20048;-57
2022/03/11 10:29:19;;;;;;;28.35;16.35;;;16.00;47.00;;;;;;5033538;28;20056;-57
2022/03/11 10:31:51;;;;;;;24.40;16.67;;;16.10;46.40;;;;;;5033090;28;20041;-58
2022/03/11 10:34:27;;;;;;;27.05;16.80;;;16.20;46.20;;;;;;5045311;28;20059;-58
2022/03/11 10:37:06;;;;;;;25.48;16.23;;;16.30;46.50;;;;;;5053909;28;20136;-58
2022/03/11 10:39:36;;;;;;;25.40;16.52;;;16.40;46.50;;;;;;5051829;28;20049;-58
2022/03/11 10:42:13;;;;;;;29.60;17.38;;;16.40;46.60;;;;;;5053403;28;20029;-48
2022/03/11 10:44:52;;;;;;;29.50;15.25;;;16.30;45.30;;;;;;5053310;28;20110;-50
2022/03/11 10:47:27;;;;;;;25.88;14.70;;;16.30;46.00;;;;;;5052761;28;20117;-49
2022/03/11 10:49:56;;;;;;;28.17;17.15;;;16.40;46.60;;;;;;5042237;28;20041;-50
2022/03/11 10:52:42;;;;;;;24.50;15.40;;;16.50;43.70;;;;;;5034533;28;20037;-52
2022/03/11 10:55:26;;;;;;;25.27;15.40;;;16.50;44.50;;;;;;5049412;28;20045;-50
2022/03/11 10:57:54;;;;;;;25.77;16.45;;;16.50;44.60;;;;;;5053120;28;20385;-50
2022/03/11 11:00:33;;;;;;;29.80;16.20;;;16.60;44.00;;;;;;5051478;28;20052;-50
2022/03/11 11:03:02;;;;;;;24.63;15.30;;;16.60;44.10;;;;;;5052973;28;20060;-48
2022/03/11 11:05:31;;;;;;;37.03;16.50;;;16.70;44.30;;;;;;5052955;28;20047;-50
2022/03/11 11:07:59;;;;;;;30.33;16.75;;;16.70;42.60;;;;;;5040330;28;20112;-50
2022/03/11 11:10:28;;;;;;;29.60;16.65;;;16.70;43.80;;;;;;5032779;28;20839;-51
2022/03/11 11:12:55;;;;;;;31.58;15.32;;;16.80;43.60;;;;;;5032090;28;20041;-51
2022/03/11 11:15:23;;;;;;;24.42;15.40;;;16.90;43.00;;;;;;5032588;28;20120;-51
2022/03/11 11:17:53;;;;;;;25.10;16.63;;;17.10;40.90;;;;;;5038032;28;20120;-50
2022/03/11 11:20:44;;;;;;;31.70;16.65;;;17.30;39.00;;;;;;5052683;28;20048;-51
2022/03/11 11:23:11;;;;;;;31.40;17.10;;;17.50;39.00;;;;;;5051964;28;20545;-49
2022/03/11 11:25:40;;;;;;;26.83;16.50;;;17.60;38.30;;;;;;5052839;28;20133;-51
2022/03/11 11:28:19;;;;;;;25.02;16.00;;;17.60;37.40;;;;;;5053123;28;20090;-51
2022/03/11 11:30:47;;;;;;;28.92;16.65;;;17.70;37.50;;;;;;5051685;28;20048;-51
2022/03/11 11:33:14;;;;;;;24.83;16.63;;;17.70;37.20;;;;;;5052349;28;20028;-58
2022/03/11 11:35:43;;;;;;;26.60;16.73;;;17.70;37.70;;;;;;5050967;28;20052;-58
2022/03/11 11:38:32;;;;;;;28.38;17.25;;;17.70;37.10;;;;;;5053026;28;20709;-59
2022/03/11 11:41:01;;;;;;;31.10;17.50;;;17.70;37.60;;;;;;5054792;28;20068;-59
2022/03/11 11:43:30;;;;;;;26.45;16.05;;;17.70;37.30;;;;;;5050053;28;20052;-56
2022/03/11 11:46:10;;;;;;;22.92;15.02;;;17.70;37.70;;;;;;5052606;28;20061;-55
2022/03/11 11:48:45;;;;;;;23.90;16.25;;;17.80;37.60;;;;;;5051624;28;20047;-55
2022/03/11 11:51:13;;;;;;;25.95;16.30;;;17.90;37.50;;;;;;5051966;28;20051;-54
2022/03/11 11:53:54;;;;;;;27.50;17.08;;;17.90;36.70;;;;;;5049987;28;20449;-55
2022/03/11 11:56:31;;;;;;;30.50;16.92;;;18.00;36.90;;;;;;5032577;28;20099;-55
2022/03/11 11:59:03;;;;;;;32.92;18.48;;;18.10;37.30;;;;;;5032508;28;20052;-54
2022/03/11 12:01:40;;;;;;;22.25;15.70;;;18.00;36.50;;;;;;5041194;28;20044;-54
2022/03/11 12:04:22;;;;;;;26.38;16.23;;;18.00;37.90;;;;;;5051865;28;20498;-58
2022/03/11 12:07:00;;;;;;;23.83;15.85;;;18.10;37.10;;;;;;5051479;28;20059;-58
2022/03/11 12:09:42;;;;;;;31.85;18.02;;;18.10;37.50;;;;;;5052878;28;20051;-58
2022/03/11 12:12:20;;;;;;;25.35;17.55;;;18.20;37.00;;;;;;5051936;28;20033;-58
2022/03/11 12:15:08;;;;;;;29.95;16.95;;;18.30;36.10;;;;;;5051667;28;20059;-58
2022/03/11 12:17:44;;;;;;;32.97;19.27;;;18.30;36.00;;;;;;5050580;28;20040;-59
2022/03/11 12:23:17;;;;;;;36.28;20.63;;;18.50;35.80;;;;;;5051620;28;20049;-59
2022/03/11 12:25:48;;;;;;;31.70;19.80;;;18.60;36.80;;;;;;5051356;28;20044;-59
2022/03/11 12:28:33;;;;;;;29.58;20.13;;;18.70;35.30;;;;;;5052199;28;20101;-59
2022/03/11 12:31:10;;;;;;;32.30;20.98;;;18.80;35.40;;;;;;5051110;28;20698;-57
2022/03/11 12:33:49;;;;;;;32.45;20.73;;;18.80;34.90;;;;;;5051265;28;20052;-58
2022/03/11 12:36:24;;;;;;;33.00;20.63;;;18.90;34.90;;;;;;5049980;28;20144;-58
2022/03/11 12:38:53;;;;;;;37.10;21.50;;;18.90;33.30;;;;;;5052351;28;20052;-58
2022/03/11 12:41:28;;;;;;;32.67;20.70;;;19.00;32.70;;;;;;5051441;28;20122;-58
2022/03/11 12:43:58;;;;;;;39.75;21.88;;;19.10;33.00;;;;;;5050915;28;20426;-58
2022/03/11 12:46:26;;;;;;;31.90;20.98;;;19.00;33.00;;;;;;5052480;28;20068;-58
2022/03/11 12:48:53;;;;;;;34.53;20.60;;;18.80;33.30;;;;;;5051578;28;20072;-58
2022/03/11 12:51:24;;;;;;;31.98;20.10;;;18.70;33.00;;;;;;5051706;28;20048;-58
2022/03/11 12:53:52;;;;;;;34.22;21.42;;;18.80;33.00;;;;;;5050072;28;20064;-58
2022/03/11 12:56:22;;;;;;;30.50;20.27;;;18.70;34.00;;;;;;5052245;28;20111;-58